sensor_id;sensor_type;location;lat;lon;timestamp;pressure;altitude;pressure_sealevel;temperature;humidity
20228;BME280;12195;55.790;37.572;2023-03-03T00:00:29;98398.58;;;1.35;73.21
20228;BME280;12195;55.790;37.572;2023-03-03T00:03:04;98401.10;;;1.36;73.20
20228;BME280;12195;55.790;37.572;2023-03-03T00:05:38;98394.06;;;1.40;73.17
20228;BME280;12195;55.790;37.572;2023-03-03T00:08:10;98387.02;;;1.43;73.31
20228;BME280;12195;55.790;37.572;2023-03-03T00:10:42;98370.48;;;1.47;73.13
20228;BME280;12195;55.790;37.572;2023-03-03T00:13:19;98377.20;;;1.51;72.98
20228;BME280;12195;55.790;37.572;2023-03-03T00:15:52;98373.80;;;1.51;73.20
20228;BME280;12195;55.790;37.572;2023-03-03T00:18:36;98372.78;;;1.55;72.99
20228;BME280;12195;55.790;37.572;2023-03-03T00:22:13;98371.87;;;1.56;73.14
20228;BME280;12195;55.790;37.572;2023-03-03T00:24:16;98371.75;;;1.59;73.03
20228;BME280;12195;55.790;37.572;2023-03-03T00:26:51;98369.22;;;1.57;73.16
20228;BME280;12195;55.790;37.572;2023-03-03T00:29:27;98351.89;;;1.59;72.94
20228;BME280;12195;55.790;37.572;2023-03-03T00:32:27;98345.89;;;1.59;73.04
20228;BME280;12195;55.790;37.572;2023-03-03T00:34:36;98343.25;;;1.60;72.85
20228;BME280;12195;55.790;37.572;2023-03-03T00:37:18;98343.25;;;1.60;72.83
20228;BME280;12195;55.790;37.572;2023-03-03T00:39:44;98341.59;;;1.58;73.00
20228;BME280;12195;55.790;37.572;2023-03-03T00:42:17;98339.02;;;1.58;73.20
20228;BME280;12195;55.790;37.572;2023-03-03T00:44:56;98331.34;;;1.56;73.17
20228;BME280;12195;55.790;37.572;2023-03-03T00:47:38;98329.58;;;1.57;73.27
20228;BME280;12195;55.790;37.572;2023-03-03T00:53:01;98321.06;;;1.55;73.46
20228;BME280;12195;55.790;37.572;2023-03-03T00:55:34;98322.73;;;1.56;73.42
20228;BME280;12195;55.790;37.572;2023-03-03T00:58:06;98320.16;;;1.56;73.59
20228;BME280;12195;55.790;37.572;2023-03-03T01:00:40;98307.34;;;1.53;73.72
20228;BME280;12195;55.790;37.572;2023-03-03T01:03:17;98314.80;;;1.60;73.42
20228;BME280;12195;55.790;37.572;2023-03-03T01:05:50;98306.12;;;1.61;73.49
20228;BME280;12195;55.790;37.572;2023-03-03T01:08:23;98306.19;;;1.60;73.46
20228;BME280;12195;55.790;37.572;2023-03-03T01:10:57;98301.93;;;1.59;73.66
20228;BME280;12195;55.790;37.572;2023-03-03T01:13:32;98300.31;;;1.56;73.79
20228;BME280;12195;55.790;37.572;2023-03-03T01:16:06;98295.27;;;1.53;73.95
20228;BME280;12195;55.790;37.572;2023-03-03T01:18:39;98299.98;;;1.64;74.01
20228;BME280;12195;55.790;37.572;2023-03-03T01:21:12;98289.23;;;1.53;74.12
20228;BME280;12195;55.790;37.572;2023-03-03T01:23:44;98298.48;;;1.58;74.10
20228;BME280;12195;55.790;37.572;2023-03-03T01:26:16;98303.08;;;1.52;74.23
20228;BME280;12195;55.790;37.572;2023-03-03T01:28:48;98299.97;;;1.44;74.43
20228;BME280;12195;55.790;37.572;2023-03-03T01:31:20;98305.25;;;1.41;74.79
20228;BME280;12195;55.790;37.572;2023-03-03T01:33:53;98299.44;;;1.36;75.10
20228;BME280;12195;55.790;37.572;2023-03-03T01:36:27;98291.56;;;1.39;75.38
20228;BME280;12195;55.790;37.572;2023-03-03T01:38:59;98296.73;;;1.39;75.54
20228;BME280;12195;55.790;37.572;2023-03-03T01:41:31;98293.23;;;1.40;75.82
20228;BME280;12195;55.790;37.572;2023-03-03T01:44:03;98292.38;;;1.39;75.92
20228;BME280;12195;55.790;37.572;2023-03-03T01:46:57;98289.03;;;1.37;76.19
20228;BME280;12195;55.790;37.572;2023-03-03T01:49:41;98282.95;;;1.38;76.23
20228;BME280;12195;55.790;37.572;2023-03-03T01:52:21;98288.92;;;1.40;76.39
20228;BME280;12195;55.790;37.572;2023-03-03T01:54:56;98288.77;;;1.43;76.40
20228;BME280;12195;55.790;37.572;2023-03-03T01:57:34;98288.66;;;1.46;76.58
20228;BME280;12195;55.790;37.572;2023-03-03T02:00:07;98286.13;;;1.45;76.68
20228;BME280;12195;55.790;37.572;2023-03-03T02:02:42;98285.16;;;1.47;76.73
20228;BME280;12195;55.790;37.572;2023-03-03T02:05:15;98266.17;;;1.48;76.91
20228;BME280;12195;55.790;37.572;2023-03-03T02:07:47;98275.61;;;1.49;76.93
20228;BME280;12195;55.790;37.572;2023-03-03T02:10:20;98265.97;;;1.53;77.14
20228;BME280;12195;55.790;37.572;2023-03-03T02:12:56;98260.03;;;1.51;77.10
20228;BME280;12195;55.790;37.572;2023-03-03T02:15:32;98264.35;;;1.50;77.26
20228;BME280;12195;55.790;37.572;2023-03-03T02:18:18;98260.61;;;1.57;77.30
20228;BME280;12195;55.790;37.572;2023-03-03T02:21:09;98256.36;;;1.56;77.23
20228;BME280;12195;55.790;37.572;2023-03-03T02:26:29;98246.66;;;1.61;77.25
20228;BME280;12195;55.790;37.572;2023-03-03T02:29:03;98238.95;;;1.60;77.26
20228;BME280;12195;55.790;37.572;2023-03-03T02:31:35;98244.88;;;1.62;77.32
20228;BME280;12195;55.790;37.572;2023-03-03T02:34:08;98228.48;;;1.63;77.41
20228;BME280;12195;55.790;37.572;2023-03-03T02:36:42;98231.83;;;1.65;77.34
20228;BME280;12195;55.790;37.572;2023-03-03T02:39:20;98224.02;;;1.66;77.22
20228;BME280;12195;55.790;37.572;2023-03-03T02:44:35;98228.20;;;1.69;77.13
20228;BME280;12195;55.790;37.572;2023-03-03T02:47:07;98223.95;;;1.68;77.04
20228;BME280;12195;55.790;37.572;2023-03-03T02:49:39;98220.27;;;1.73;76.77
20228;BME280;12195;55.790;37.572;2023-03-03T02:52:12;98212.50;;;1.73;76.69
20228;BME280;12195;55.790;37.572;2023-03-03T02:54:46;98222.79;;;1.75;76.53
20228;BME280;12195;55.790;37.572;2023-03-03T02:57:24;98215.16;;;1.72;76.75
20228;BME280;12195;55.790;37.572;2023-03-03T02:59:57;98204.93;;;1.69;76.84
20228;BME280;12195;55.790;37.572;2023-03-03T03:02:31;98215.16;;;1.72;76.86
20228;BME280;12195;55.790;37.572;2023-03-03T03:05:03;98207.27;;;1.75;76.82
20228;BME280;12195;55.790;37.572;2023-03-03T03:07:35;98205.72;;;1.71;76.92
20228;BME280;12195;55.790;37.572;2023-03-03T03:10:09;98215.91;;;1.74;76.91
20228;BME280;12195;55.790;37.572;2023-03-03T03:12:42;98207.33;;;1.73;76.90
20228;BME280;12195;55.790;37.572;2023-03-03T03:15:15;98210.20;;;1.86;76.87
20228;BME280;12195;55.790;37.572;2023-03-03T03:17:47;98198.72;;;1.73;76.54
20228;BME280;12195;55.790;37.572;2023-03-03T03:20:19;98208.44;;;1.68;76.79
20228;BME280;12195;55.790;37.572;2023-03-03T03:22:51;98212.97;;;1.63;76.70
20228;BME280;12195;55.790;37.572;2023-03-03T03:25:23;98208.68;;;1.62;76.79
20228;BME280;12195;55.790;37.572;2023-03-03T03:27:56;98203.72;;;1.57;76.92
20228;BME280;12195;55.790;37.572;2023-03-03T03:30:28;98198.73;;;1.53;76.99
20228;BME280;12195;55.790;37.572;2023-03-03T03:33:01;98210.84;;;1.52;77.10
20228;BME280;12195;55.790;37.572;2023-03-03T03:35:35;98194.66;;;1.47;77.28
20228;BME280;12195;55.790;37.572;2023-03-03T03:38:07;98201.72;;;1.44;77.44
20228;BME280;12195;55.790;37.572;2023-03-03T03:40:41;98199.92;;;1.46;77.67
20228;BME280;12195;55.790;37.572;2023-03-03T03:43:14;98189.70;;;1.43;77.82
20228;BME280;12195;55.790;37.572;2023-03-03T03:45:46;98192.30;;;1.43;78.03
20228;BME280;12195;55.790;37.572;2023-03-03T03:48:19;98196.61;;;1.42;78.21
20228;BME280;12195;55.790;37.572;2023-03-03T03:50:52;98193.11;;;1.43;78.36
20228;BME280;12195;55.790;37.572;2023-03-03T03:53:26;98187.13;;;1.43;78.41
20228;BME280;12195;55.790;37.572;2023-03-03T03:55:58;98187.13;;;1.43;78.50
20228;BME280;12195;55.790;37.572;2023-03-03T03:58:32;98187.87;;;1.45;78.55
20228;BME280;12195;55.790;37.572;2023-03-03T04:01:07;98181.04;;;1.44;78.69
20228;BME280;12195;55.790;37.572;2023-03-03T04:03:41;98178.58;;;1.41;78.82
20228;BME280;12195;55.790;37.572;2023-03-03T04:06:15;98182.87;;;1.42;78.93
20228;BME280;12195;55.790;37.572;2023-03-03T04:08:47;98173.41;;;1.41;79.05
20228;BME280;12195;55.790;37.572;2023-03-03T04:11:21;98174.32;;;1.40;79.10
20228;BME280;12195;55.790;37.572;2023-03-03T04:13:53;98173.00;;;1.50;79.33
20228;BME280;12195;55.790;37.572;2023-03-03T04:16:27;98169.15;;;1.40;79.29
20228;BME280;12195;55.790;37.572;2023-03-03T04:19:00;98174.55;;;1.54;79.51
20228;BME280;12195;55.790;37.572;2023-03-03T04:21:33;98170.82;;;1.41;79.05
20228;BME280;12195;55.790;37.572;2023-03-03T04:24:07;98169.27;;;1.37;79.28
20228;BME280;12195;55.790;37.572;2023-03-03T04:26:40;98167.78;;;1.31;79.47
20228;BME280;12195;55.790;37.572;2023-03-03T04:29:13;98166.75;;;1.35;79.57
20228;BME280;12195;55.790;37.572;2023-03-03T04:31:45;98159.91;;;1.34;79.73
20228;BME280;12195;55.790;37.572;2023-03-03T04:34:19;98166.91;;;1.32;79.91
20228;BME280;12195;55.790;37.572;2023-03-03T04:36:52;98161.67;;;1.34;79.92
20228;BME280;12195;55.790;37.572;2023-03-03T04:39:25;98161.80;;;1.31;80.06
20228;BME280;12195;55.790;37.572;2023-03-03T04:41:57;98167.72;;;1.33;80.27
20228;BME280;12195;55.790;37.572;2023-03-03T04:44:30;98165.02;;;1.36;80.34
20228;BME280;12195;55.790;37.572;2023-03-03T04:47:03;98160.64;;;1.38;80.49
20228;BME280;12195;55.790;37.572;2023-03-03T04:49:35;98163.13;;;1.39;80.39
20228;BME280;12195;55.790;37.572;2023-03-03T04:52:08;98157.95;;;1.39;80.50
20228;BME280;12195;55.790;37.572;2023-03-03T04:54:41;98160.30;;;1.45;80.56
20228;BME280;12195;55.790;37.572;2023-03-03T04:57:13;98168.05;;;1.45;80.56
20228;BME280;12195;55.790;37.572;2023-03-03T04:59:46;98172.37;;;1.45;80.50
20228;BME280;12195;55.790;37.572;2023-03-03T05:02:19;98166.38;;;1.44;80.51
20228;BME280;12195;55.790;37.572;2023-03-03T05:04:52;98163.73;;;1.46;80.55
20228;BME280;12195;55.790;37.572;2023-03-03T05:07:25;98163.73;;;1.46;80.62
20228;BME280;12195;55.790;37.572;2023-03-03T05:09:58;98163.80;;;1.44;80.71
20228;BME280;12195;55.790;37.572;2023-03-03T05:12:31;98170.64;;;1.45;80.68
20228;BME280;12195;55.790;37.572;2023-03-03T05:15:04;98164.43;;;1.49;80.77
20228;BME280;12195;55.790;37.572;2023-03-03T05:17:36;98167.08;;;1.48;80.77
20228;BME280;12195;55.790;37.572;2023-03-03T05:20:09;98169.38;;;1.54;80.79
20228;BME280;12195;55.790;37.572;2023-03-03T05:22:43;98179.66;;;1.55;80.78
20228;BME280;12195;55.790;37.572;2023-03-03T05:25:16;98175.53;;;1.51;80.62
20228;BME280;12195;55.790;37.572;2023-03-03T05:27:48;98176.38;;;1.52;80.73
20228;BME280;12195;55.790;37.572;2023-03-03T05:30:21;98172.75;;;1.56;80.64
20228;BME280;12195;55.790;37.572;2023-03-03T05:32:53;98172.75;;;1.56;80.65
20228;BME280;12195;55.790;37.572;2023-03-03T05:35:26;98183.28;;;1.51;80.60
20228;BME280;12195;55.790;37.572;2023-03-03T05:37:58;98178.97;;;1.52;80.69
20228;BME280;12195;55.790;37.572;2023-03-03T05:40:30;98175.06;;;1.62;80.75
20228;BME280;12195;55.790;37.572;2023-03-03T05:43:04;98168.09;;;1.64;80.80
20228;BME280;12195;55.790;37.572;2023-03-03T05:45:37;98182.81;;;1.62;80.51
20228;BME280;12195;55.790;37.572;2023-03-03T05:48:10;98182.76;;;1.63;80.31
20228;BME280;12195;55.790;37.572;2023-03-03T05:50:43;98174.27;;;1.80;80.48
20228;BME280;12195;55.790;37.572;2023-03-03T05:53:16;98179.00;;;1.70;79.72
20228;BME280;12195;55.790;37.572;2023-03-03T05:55:48;98176.77;;;1.63;79.88
20228;BME280;12195;55.790;37.572;2023-03-03T05:58:21;98176.77;;;1.63;79.96
20228;BME280;12195;55.790;37.572;2023-03-03T06:00:53;98175.22;;;1.59;80.00
20228;BME280;12195;55.790;37.572;2023-03-03T06:03:25;98173.52;;;1.58;80.14
20228;BME280;12195;55.790;37.572;2023-03-03T06:05:57;98179.48;;;1.60;80.32
20228;BME280;12195;55.790;37.572;2023-03-03T06:08:30;98174.59;;;1.72;80.50
20228;BME280;12195;55.790;37.572;2023-03-03T06:11:02;98183.55;;;1.65;80.42
20228;BME280;12195;55.790;37.572;2023-03-03T06:13:35;98191.30;;;1.65;80.38
20228;BME280;12195;55.790;37.572;2023-03-03T06:16:08;98185.16;;;1.68;80.26
20228;BME280;12195;55.790;37.572;2023-03-03T06:18:40;98190.11;;;1.72;80.37
20228;BME280;12195;55.790;37.572;2023-03-03T06:21:12;98194.59;;;1.69;80.45
20228;BME280;12195;55.790;37.572;2023-03-03T06:23:46;98197.05;;;1.72;80.56
20228;BME280;12195;55.790;37.572;2023-03-03T06:26:20;98188.94;;;1.79;80.37
20228;BME280;12195;55.790;37.572;2023-03-03T06:28:54;98188.03;;;1.80;80.16
20228;BME280;12195;55.790;37.572;2023-03-03T06:31:27;98194.69;;;1.86;80.21
20228;BME280;12195;55.790;37.572;2023-03-03T06:33:59;98184.02;;;1.93;80.11
20228;BME280;12195;55.790;37.572;2023-03-03T06:36:33;98189.81;;;1.98;80.13
20228;BME280;12195;55.790;37.572;2023-03-03T06:39:05;98188.48;;;2.08;80.08
20228;BME280;12195;55.790;37.572;2023-03-03T06:41:37;98192.67;;;2.11;79.69
20228;BME280;12195;55.790;37.572;2023-03-03T06:44:10;98189.20;;;2.12;79.65
20228;BME280;12195;55.790;37.572;2023-03-03T06:46:42;98188.70;;;2.04;79.51
20228;BME280;12195;55.790;37.572;2023-03-03T06:49:16;98189.40;;;2.07;79.53
20228;BME280;12195;55.790;37.572;2023-03-03T06:51:50;98190.44;;;2.03;79.48
20228;BME280;12195;55.790;37.572;2023-03-03T06:54:28;98188.84;;;2.01;79.53
20228;BME280;12195;55.790;37.572;2023-03-03T06:57:07;98197.23;;;2.06;79.56
20228;BME280;12195;55.790;37.572;2023-03-03T06:59:38;98197.16;;;2.07;79.31
20228;BME280;12195;55.790;37.572;2023-03-03T07:02:20;98197.52;;;2.00;79.04
20228;BME280;12195;55.790;37.572;2023-03-03T07:04:48;98200.38;;;2.12;79.31
20228;BME280;12195;55.790;37.572;2023-03-03T07:07:23;98203.52;;;2.00;79.15
20228;BME280;12195;55.790;37.572;2023-03-03T07:09:56;98208.30;;;2.09;79.38
20228;BME280;12195;55.790;37.572;2023-03-03T07:12:31;98199.19;;;2.01;79.20
20228;BME280;12195;55.790;37.572;2023-03-03T07:15:13;98200.04;;;2.01;79.30
20228;BME280;12195;55.790;37.572;2023-03-03T07:17:52;98204.49;;;1.98;79.29
20228;BME280;12195;55.790;37.572;2023-03-03T07:20:34;98211.27;;;2.00;79.47
20228;BME280;12195;55.790;37.572;2023-03-03T07:22:56;98209.66;;;1.98;79.38
20228;BME280;12195;55.790;37.572;2023-03-03T07:25:34;98211.27;;;2.00;79.56
20228;BME280;12195;55.790;37.572;2023-03-03T07:30:57;98200.92;;;2.00;79.73
20228;BME280;12195;55.790;37.572;2023-03-03T07:33:39;98203.94;;;2.10;79.91
20228;BME280;12195;55.790;37.572;2023-03-03T07:36:29;98206.76;;;2.05;79.65
20228;BME280;12195;55.790;37.572;2023-03-03T07:39:27;98206.41;;;2.13;79.55
20228;BME280;12195;55.790;37.572;2023-03-03T07:42:20;98209.12;;;2.10;79.79
20228;BME280;12195;55.790;37.572;2023-03-03T07:44:55;98206.66;;;2.07;79.33
20228;BME280;12195;55.790;37.572;2023-03-03T07:47:35;98210.03;;;2.09;79.40
20228;BME280;12195;55.790;37.572;2023-03-03T07:50:12;98207.32;;;2.12;79.50
20228;BME280;12195;55.790;37.572;2023-03-03T07:52:54;98206.05;;;2.20;79.46
20228;BME280;12195;55.790;37.572;2023-03-03T07:55:30;98198.28;;;2.20;79.28
20228;BME280;12195;55.790;37.572;2023-03-03T08:03:42;98201.78;;;2.38;79.35
20228;BME280;12195;55.790;37.572;2023-03-03T08:14:33;98213.70;;;2.77;77.98
20228;BME280;12195;55.790;37.572;2023-03-03T08:17:21;98212.72;;;2.80;77.73
20228;BME280;12195;55.790;37.572;2023-03-03T08:19:55;98205.06;;;2.95;77.92
20228;BME280;12195;55.790;37.572;2023-03-03T08:22:34;98212.98;;;2.92;76.73
20228;BME280;12195;55.790;37.572;2023-03-03T08:25:07;98213.52;;;2.99;76.37
20228;BME280;12195;55.790;37.572;2023-03-03T08:27:39;98218.52;;;2.85;75.75
20228;BME280;12195;55.790;37.572;2023-03-03T08:30:12;98213.84;;;2.74;75.72
20228;BME280;12195;55.790;37.572;2023-03-03T08:32:45;98228.77;;;2.69;76.43
20228;BME280;12195;55.790;37.572;2023-03-03T08:35:18;98224.09;;;2.59;76.50
20228;BME280;12195;55.790;37.572;2023-03-03T08:37:51;98228.52;;;2.57;76.83
20228;BME280;12195;55.790;37.572;2023-03-03T08:40:23;98233.95;;;2.69;77.06
20228;BME280;12195;55.790;37.572;2023-03-03T08:42:57;98229.07;;;2.63;77.00
20228;BME280;12195;55.790;37.572;2023-03-03T08:45:30;98226.31;;;2.66;76.99
20228;BME280;12195;55.790;37.572;2023-03-03T08:48:04;98223.39;;;2.74;77.48
20228;BME280;12195;55.790;37.572;2023-03-03T08:50:40;98230.58;;;2.86;77.13
20228;BME280;12195;55.790;37.572;2023-03-03T08:53:13;98237.77;;;2.98;77.50
20228;BME280;12195;55.790;37.572;2023-03-03T08:55:46;98239.47;;;3.16;77.28
20228;BME280;12195;55.790;37.572;2023-03-03T08:58:20;98234.75;;;3.41;77.32
20228;BME280;12195;55.790;37.572;2023-03-03T09:00:55;98231.78;;;3.65;77.04
20228;BME280;12195;55.790;37.572;2023-03-03T09:03:29;98231.23;;;3.76;76.45
20228;BME280;12195;55.790;37.572;2023-03-03T09:06:01;98238.22;;;3.91;76.35
20228;BME280;12195;55.790;37.572;2023-03-03T09:08:34;98230.72;;;4.02;75.29
20228;BME280;12195;55.790;37.572;2023-03-03T09:11:12;98234.24;;;4.01;75.70
20228;BME280;12195;55.790;37.572;2023-03-03T09:13:44;98235.42;;;4.11;75.44
20228;BME280;12195;55.790;37.572;2023-03-03T09:16:18;98229.20;;;3.98;74.73
20228;BME280;12195;55.790;37.572;2023-03-03T09:18:52;98235.42;;;4.11;75.42
20228;BME280;12195;55.790;37.572;2023-03-03T09:21:29;98229.53;;;3.92;75.55
20228;BME280;12195;55.790;37.572;2023-03-03T09:24:09;98226.12;;;4.07;77.36
20228;BME280;12195;55.790;37.572;2023-03-03T09:26:47;98226.77;;;4.43;76.48
20228;BME280;12195;55.790;37.572;2023-03-03T09:29:27;98226.88;;;4.72;75.59
20228;BME280;12195;55.790;37.572;2023-03-03T09:34:51;98237.67;;;4.96;74.71
20228;BME280;12195;55.790;37.572;2023-03-03T09:37:30;98239.42;;;5.11;72.82
20228;BME280;12195;55.790;37.572;2023-03-03T09:40:11;98234.16;;;4.81;72.91
20228;BME280;12195;55.790;37.572;2023-03-03T09:45:43;98244.31;;;4.86;73.52
20228;BME280;12195;55.790;37.572;2023-03-03T09:48:27;98240.19;;;4.97;72.99
20228;BME280;12195;55.790;37.572;2023-03-03T09:54:19;98235.40;;;5.05;73.04
20228;BME280;12195;55.790;37.572;2023-03-03T09:57:10;98235.13;;;5.10;72.78
20228;BME280;12195;55.790;37.572;2023-03-03T10:08:20;98231.20;;;4.87;69.67
20228;BME280;12195;55.790;37.572;2023-03-03T10:22:01;98229.37;;;4.43;71.67
20228;BME280;12195;55.790;37.572;2023-03-03T10:27:43;98229.52;;;4.24;70.39
20228;BME280;12195;55.790;37.572;2023-03-03T10:33:05;98222.88;;;4.19;70.46
20228;BME280;12195;55.790;37.572;2023-03-03T10:39:44;98227.92;;;4.22;70.09
20228;BME280;12195;55.790;37.572;2023-03-03T10:44:34;98225.37;;;4.68;69.64
20228;BME280;12195;55.790;37.572;2023-03-03T10:47:26;98220.56;;;4.92;70.40
20228;BME280;12195;55.790;37.572;2023-03-03T10:50:26;98229.43;;;5.19;69.92
20228;BME280;12195;55.790;37.572;2023-03-03T10:55:46;98222.52;;;5.33;67.56
20228;BME280;12195;55.790;37.572;2023-03-03T11:01:25;98215.69;;;5.01;65.57
20228;BME280;12195;55.790;37.572;2023-03-03T11:09:41;98227.27;;;4.65;67.26
20228;BME280;12195;55.790;37.572;2023-03-03T11:12:22;98235.91;;;4.81;68.00
20228;BME280;12195;55.790;37.572;2023-03-03T11:15:12;98233.13;;;4.99;65.65
20228;BME280;12195;55.790;37.572;2023-03-03T11:35:07;98237.56;;;5.13;67.04
20228;BME280;12195;55.790;37.572;2023-03-03T11:40:25;98243.53;;;4.99;67.47
20228;BME280;12195;55.790;37.572;2023-03-03T11:43:09;98245.91;;;4.88;66.04
20228;BME280;12195;55.790;37.572;2023-03-03T11:45:56;98235.98;;;4.79;67.24
20228;BME280;12195;55.790;37.572;2023-03-03T11:48:57;98246.23;;;4.82;68.13
20228;BME280;12195;55.790;37.572;2023-03-03T11:54:23;98242.64;;;5.30;65.25
20228;BME280;12195;55.790;37.572;2023-03-03T11:57:06;98240.59;;;5.50;66.36
20228;BME280;12195;55.790;37.572;2023-03-03T11:59:40;98247.87;;;5.89;66.62
20228;BME280;12195;55.790;37.572;2023-03-03T12:05:18;98234.60;;;5.78;64.38
20228;BME280;12195;55.790;37.572;2023-03-03T12:07:54;98241.77;;;5.74;61.51
20228;BME280;12195;55.790;37.572;2023-03-03T12:10:49;98244.55;;;5.42;60.25
20228;BME280;12195;55.790;37.572;2023-03-03T12:22:33;98249.03;;;5.24;60.54
20228;BME280;12195;55.790;37.572;2023-03-03T12:28:23;98249.27;;;5.35;59.45
20228;BME280;12195;55.790;37.572;2023-03-03T12:31:29;98244.34;;;5.31;59.00
20228;BME280;12195;55.790;37.572;2023-03-03T12:33:54;98248.24;;;5.08;59.86
20228;BME280;12195;55.790;37.572;2023-03-03T12:39:21;98245.30;;;4.83;61.31
20228;BME280;12195;55.790;37.572;2023-03-03T12:47:49;98250.65;;;4.34;62.76
20228;BME280;12195;55.790;37.572;2023-03-03T12:50:26;98258.31;;;4.20;63.58
20228;BME280;12195;55.790;37.572;2023-03-03T12:56:40;98254.38;;;4.13;63.60
20228;BME280;12195;55.790;37.572;2023-03-03T12:58:50;98261.73;;;4.05;64.27
20228;BME280;12195;55.790;37.572;2023-03-03T13:04:37;98262.80;;;4.01;64.66
20228;BME280;12195;55.790;37.572;2023-03-03T13:07:31;98263.28;;;3.92;64.45
20228;BME280;12195;55.790;37.572;2023-03-03T13:10:39;98268.39;;;3.76;65.11
20228;BME280;12195;55.790;37.572;2023-03-03T13:13:23;98266.19;;;3.69;65.53
20228;BME280;12195;55.790;37.572;2023-03-03T13:16:03;98279.70;;;3.58;66.11
20228;BME280;12195;55.790;37.572;2023-03-03T13:21:16;98268.07;;;3.31;67.55
20228;BME280;12195;55.790;37.572;2023-03-03T13:24:10;98266.47;;;3.29;67.82
20228;BME280;12195;55.790;37.572;2023-03-03T13:29:29;98261.75;;;3.37;67.86
20228;BME280;12195;55.790;37.572;2023-03-03T13:32:16;98260.23;;;3.50;67.81
20228;BME280;12195;55.790;37.572;2023-03-03T13:35:07;98249.84;;;3.67;67.96
20228;BME280;12195;55.790;37.572;2023-03-03T13:37:41;98253.64;;;3.94;67.45
20228;BME280;12195;55.790;37.572;2023-03-03T13:59:58;98228.00;;;8.27;49.99
20228;BME280;12195;55.790;37.572;2023-03-03T14:05:49;98240.80;;;6.33;53.42
20228;BME280;12195;55.790;37.572;2023-03-03T14:14:24;98243.05;;;4.62;58.45
20228;BME280;12195;55.790;37.572;2023-03-03T14:17:16;98244.22;;;4.41;59.03
20228;BME280;12195;55.790;37.572;2023-03-03T14:20:38;98242.84;;;4.18;59.80
20228;BME280;12195;55.790;37.572;2023-03-03T14:22:51;98247.03;;;4.21;59.97
20228;BME280;12195;55.790;37.572;2023-03-03T14:25:16;98248.59;;;3.91;59.94
20228;BME280;12195;55.790;37.572;2023-03-03T14:27:53;98240.09;;;3.72;61.09
20228;BME280;12195;55.790;37.572;2023-03-03T14:30:32;98255.13;;;3.65;61.53
20228;BME280;12195;55.790;37.572;2023-03-03T14:43:57;98255.36;;;3.44;62.36
20228;BME280;12195;55.790;37.572;2023-03-03T14:46:31;98253.05;;;3.38;62.51
20228;BME280;12195;55.790;37.572;2023-03-03T14:49:15;98257.48;;;3.53;62.28
20228;BME280;12195;55.790;37.572;2023-03-03T14:51:49;98251.77;;;3.29;62.54
20228;BME280;12195;55.790;37.572;2023-03-03T14:54:27;98246.04;;;3.23;62.82
20228;BME280;12195;55.790;37.572;2023-03-03T14:57:16;98253.21;;;3.18;63.79
20228;BME280;12195;55.790;37.572;2023-03-03T15:00:02;98262.48;;;3.22;63.00
20228;BME280;12195;55.790;37.572;2023-03-03T15:02:43;98260.75;;;3.22;62.37
20228;BME280;12195;55.790;37.572;2023-03-03T15:05:25;98255.34;;;3.27;61.93
20228;BME280;12195;55.790;37.572;2023-03-03T15:08:13;98264.47;;;3.17;62.21
20228;BME280;12195;55.790;37.572;2023-03-03T15:10:43;98274.84;;;3.17;61.79
20228;BME280;12195;55.790;37.572;2023-03-03T15:16:23;98266.77;;;3.06;62.20
20228;BME280;12195;55.790;37.572;2023-03-03T15:19:02;98273.69;;;3.05;62.63
20228;BME280;12195;55.790;37.572;2023-03-03T15:21:32;98267.44;;;3.09;62.19
20228;BME280;12195;55.790;37.572;2023-03-03T15:24:12;98259.05;;;3.04;62.60
20228;BME280;12195;55.790;37.572;2023-03-03T15:26:50;98272.70;;;3.08;62.27
20228;BME280;12195;55.790;37.572;2023-03-03T15:29:31;98270.31;;;3.03;62.80
20228;BME280;12195;55.790;37.572;2023-03-03T15:38:09;98278.80;;;3.07;62.97
20228;BME280;12195;55.790;37.572;2023-03-03T15:43:31;98283.98;;;3.07;63.25
20228;BME280;12195;55.790;37.572;2023-03-03T15:46:14;98280.47;;;3.08;63.36
20228;BME280;12195;55.790;37.572;2023-03-03T15:49:04;98277.95;;;3.06;63.59
20228;BME280;12195;55.790;37.572;2023-03-03T15:51:46;98277.95;;;3.06;63.20
20228;BME280;12195;55.790;37.572;2023-03-03T15:54:42;98274.23;;;3.12;62.79
20228;BME280;12195;55.790;37.572;2023-03-03T15:57:18;98279.41;;;3.12;62.59
20228;BME280;12195;55.790;37.572;2023-03-03T16:00:00;98276.95;;;3.09;63.38
20228;BME280;12195;55.790;37.572;2023-03-03T16:05:29;98281.87;;;3.15;62.58
20228;BME280;12195;55.790;37.572;2023-03-03T16:11:07;98285.66;;;3.08;62.71
20228;BME280;12195;55.790;37.572;2023-03-03T16:19:30;98287.19;;;3.12;62.44
20228;BME280;12195;55.790;37.572;2023-03-03T16:27:49;98276.95;;;3.09;62.42
20228;BME280;12195;55.790;37.572;2023-03-03T16:41:54;98278.56;;;3.11;63.60
20228;BME280;12195;55.790;37.572;2023-03-03T16:52:46;98278.89;;;3.22;61.73
20228;BME280;12195;55.790;37.572;2023-03-03T16:55:20;98285.21;;;3.17;61.87
20228;BME280;12195;55.790;37.572;2023-03-03T17:06:18;98282.48;;;3.20;60.66
20228;BME280;12195;55.790;37.572;2023-03-03T17:17:28;98279.92;;;3.01;61.20
20228;BME280;12195;55.790;37.572;2023-03-03T17:20:01;98275.80;;;2.97;61.21
20228;BME280;12195;55.790;37.572;2023-03-03T17:25:34;98272.45;;;2.95;61.45
20228;BME280;12195;55.790;37.572;2023-03-03T17:28:25;98278.39;;;2.97;61.01
20228;BME280;12195;55.790;37.572;2023-03-03T17:39:31;98284.14;;;2.85;61.49
20228;BME280;12195;55.790;37.572;2023-03-03T17:45:04;98273.09;;;2.82;61.73
20228;BME280;12195;55.790;37.572;2023-03-03T17:56:32;98273.16;;;2.80;61.32
20228;BME280;12195;55.790;37.572;2023-03-03T18:04:25;98278.21;;;2.83;61.34
20228;BME280;12195;55.790;37.572;2023-03-03T18:07:34;98278.78;;;2.71;61.23
20228;BME280;12195;55.790;37.572;2023-03-03T18:13:21;98276.52;;;2.64;61.80
20228;BME280;12195;55.790;37.572;2023-03-03T18:16:49;98275.70;;;2.63;61.76
20228;BME280;12195;55.790;37.572;2023-03-03T18:18:55;98272.48;;;2.77;61.77
20228;BME280;12195;55.790;37.572;2023-03-03T18:21:42;98274.72;;;2.66;61.82